sensor_id;sensor_type;location;lat;lon;timestamp;P1;durP1;ratioP1;P2;durP2;ratioP2
58567;SDS011;44354;46.192;-1.076;2023-02-01T00:02:22;30.17;;;28.58;;
58567;SDS011;44354;46.192;-1.076;2023-02-01T00:04:48;25.48;;;24.17;;
58567;SDS011;44354;46.192;-1.076;2023-02-01T00:07:14;28.58;;;27.08;;
58567;SDS011;44354;46.192;-1.076;2023-02-01T00:09:39;27.17;;;25.77;;
58567;SDS011;44354;46.192;-1.076;2023-02-01T00:12:05;26.33;;;24.92;;
58567;SDS011;44354;46.192;-1.076;2023-02-01T00:14:31;27.58;;;26.17;;
58567;SDS011;44354;46.192;-1.076;2023-02-01T00:17:03;27.83;;;26.13;;
58567;SDS011;44354;46.192;-1.076;2023-02-01T00:19:33;26.67;;;25.27;;
58567;SDS011;44354;46.192;-1.076;2023-02-01T00:22:01;27.73;;;26.33;;
58567;SDS011;44354;46.192;-1.076;2023-02-01T00:24:27;26.65;;;25.25;;
58567;SDS011;44354;46.192;-1.076;2023-02-01T00:26:56;25.00;;;23.70;;
58567;SDS011;44354;46.192;-1.076;2023-02-01T00:29:21;27.02;;;25.63;;
58567;SDS011;44354;46.192;-1.076;2023-02-01T00:31:49;28.48;;;26.98;;
58567;SDS011;44354;46.192;-1.076;2023-02-01T00:34:18;29.08;;;27.58;;
58567;SDS011;44354;46.192;-1.076;2023-02-01T00:36:50;26.95;;;25.55;;
58567;SDS011;44354;46.192;-1.076;2023-02-01T00:39:16;25.60;;;24.30;;
58567;SDS011;44354;46.192;-1.076;2023-02-01T00:41:42;28.85;;;27.35;;
58567;SDS011;44354;46.192;-1.076;2023-02-01T00:44:08;27.77;;;26.33;;
58567;SDS011;44354;46.192;-1.076;2023-02-01T00:46:34;27.52;;;26.10;;
58567;SDS011;44354;46.192;-1.076;2023-02-01T00:49:00;28.00;;;26.55;;
58567;SDS011;44354;46.192;-1.076;2023-02-01T00:51:26;28.02;;;26.58;;
58567;SDS011;44354;46.192;-1.076;2023-02-01T00:53:54;27.08;;;25.67;;
58567;SDS011;44354;46.192;-1.076;2023-02-01T00:56:20;30.00;;;28.40;;
58567;SDS011;44354;46.192;-1.076;2023-02-01T00:58:46;28.65;;;27.15;;
58567;SDS011;44354;46.192;-1.076;2023-02-01T01:01:22;28.23;;;26.73;;
58567;SDS011;44354;46.192;-1.076;2023-02-01T01:03:58;26.42;;;25.02;;
58567;SDS011;44354;46.192;-1.076;2023-02-01T01:06:28;27.08;;;25.67;;
58567;SDS011;44354;46.192;-1.076;2023-02-01T01:08:57;24.75;;;23.45;;
58567;SDS011;44354;46.192;-1.076;2023-02-01T01:11:28;24.42;;;23.15;;
58567;SDS011;44354;46.192;-1.076;2023-02-01T01:13:56;27.58;;;26.17;;
58567;SDS011;44354;46.192;-1.076;2023-02-01T01:16:23;24.70;;;23.27;;
58567;SDS011;44354;46.192;-1.076;2023-02-01T01:18:54;24.00;;;22.80;;
58567;SDS011;44354;46.192;-1.076;2023-02-01T01:21:23;24.67;;;23.38;;
58567;SDS011;44354;46.192;-1.076;2023-02-01T01:23:49;23.15;;;21.95;;
58567;SDS011;44354;46.192;-1.076;2023-02-01T01:26:16;25.65;;;24.35;;
58567;SDS011;44354;46.192;-1.076;2023-02-01T01:28:44;25.00;;;23.70;;
58567;SDS011;44354;46.192;-1.076;2023-02-01T01:31:10;25.45;;;24.13;;
58567;SDS011;44354;46.192;-1.076;2023-02-01T01:33:37;24.38;;;23.10;;
58567;SDS011;44354;46.192;-1.076;2023-02-01T01:36:10;24.13;;;22.90;;
58567;SDS011;44354;46.192;-1.076;2023-02-01T01:38:37;23.75;;;22.55;;
58567;SDS011;44354;46.192;-1.076;2023-02-01T01:41:04;23.45;;;22.25;;
58567;SDS011;44354;46.192;-1.076;2023-02-01T01:46:30;22.98;;;21.77;;
58567;SDS011;44354;46.192;-1.076;2023-02-01T01:49:19;23.27;;;22.08;;
58567;SDS011;44354;46.192;-1.076;2023-02-01T01:51:58;22.73;;;21.52;;
58567;SDS011;44354;46.192;-1.076;2023-02-01T01:54:28;24.23;;;22.92;;
58567;SDS011;44354;46.192;-1.076;2023-02-01T01:57:18;23.35;;;22.15;;
58567;SDS011;44354;46.192;-1.076;2023-02-01T01:59:53;23.05;;;21.85;;
58567;SDS011;44354;46.192;-1.076;2023-02-01T02:02:27;25.67;;;24.38;;
58567;SDS011;44354;46.192;-1.076;2023-02-01T02:04:56;22.65;;;21.40;;
58567;SDS011;44354;46.192;-1.076;2023-02-01T02:07:23;21.00;;;19.90;;
58567;SDS011;44354;46.192;-1.076;2023-02-01T02:09:55;22.33;;;21.13;;
58567;SDS011;44354;46.192;-1.076;2023-02-01T02:12:21;23.17;;;21.98;;
58567;SDS011;44354;46.192;-1.076;2023-02-01T02:14:47;21.85;;;20.73;;
58567;SDS011;44354;46.192;-1.076;2023-02-01T02:20:03;21.08;;;19.98;;
58567;SDS011;44354;46.192;-1.076;2023-02-01T02:26:06;22.80;;;21.60;;
58567;SDS011;44354;46.192;-1.076;2023-02-01T02:36:55;22.38;;;21.23;;
58567;SDS011;44354;46.192;-1.076;2023-02-01T02:42:32;24.08;;;22.85;;
58567;SDS011;44354;46.192;-1.076;2023-02-01T02:49:05;20.50;;;19.45;;
58567;SDS011;44354;46.192;-1.076;2023-02-01T02:51:47;21.98;;;20.88;;
58567;SDS011;44354;46.192;-1.076;2023-02-01T02:54:41;20.42;;;19.40;;
58567;SDS011;44354;46.192;-1.076;2023-02-01T02:57:26;19.88;;;18.88;;
58567;SDS011;44354;46.192;-1.076;2023-02-01T03:00:15;22.10;;;20.98;;
58567;SDS011;44354;46.192;-1.076;2023-02-01T03:03:05;23.38;;;22.17;;
58567;SDS011;44354;46.192;-1.076;2023-02-01T03:05:56;22.75;;;21.55;;
58567;SDS011;44354;46.192;-1.076;2023-02-01T03:08:23;21.55;;;20.45;;
58567;SDS011;44354;46.192;-1.076;2023-02-01T03:19:33;22.20;;;21.08;;
58567;SDS011;44354;46.192;-1.076;2023-02-01T03:22:09;20.10;;;19.10;;
58567;SDS011;44354;46.192;-1.076;2023-02-01T03:24:40;22.30;;;21.17;;
58567;SDS011;44354;46.192;-1.076;2023-02-01T03:32:52;26.08;;;24.73;;
58567;SDS011;44354;46.192;-1.076;2023-02-01T03:35:32;23.42;;;22.23;;
58567;SDS011;44354;46.192;-1.076;2023-02-01T03:41:10;23.50;;;22.27;;
58567;SDS011;44354;46.192;-1.076;2023-02-01T03:43:39;25.20;;;23.90;;
58567;SDS011;44354;46.192;-1.076;2023-02-01T03:46:17;24.60;;;23.30;;
58567;SDS011;44354;46.192;-1.076;2023-02-01T03:48:57;27.20;;;25.80;;
58567;SDS011;44354;46.192;-1.076;2023-02-01T03:51:27;24.83;;;23.52;;
58567;SDS011;44354;46.192;-1.076;2023-02-01T03:53:54;23.55;;;22.35;;
58567;SDS011;44354;46.192;-1.076;2023-02-01T03:56:21;24.08;;;22.85;;
58567;SDS011;44354;46.192;-1.076;2023-02-01T03:58:50;24.38;;;23.10;;
58567;SDS011;44354;46.192;-1.076;2023-02-01T04:01:26;23.40;;;22.20;;
58567;SDS011;44354;46.192;-1.076;2023-02-01T04:03:58;25.38;;;24.08;;
58567;SDS011;44354;46.192;-1.076;2023-02-01T04:06:24;24.45;;;23.17;;
58567;SDS011;44354;46.192;-1.076;2023-02-01T04:08:50;24.75;;;23.45;;
58567;SDS011;44354;46.192;-1.076;2023-02-01T04:11:16;24.00;;;22.77;;
58567;SDS011;44354;46.192;-1.076;2023-02-01T04:13:45;22.85;;;21.65;;
58567;SDS011;44354;46.192;-1.076;2023-02-01T04:16:11;25.13;;;23.83;;
58567;SDS011;44354;46.192;-1.076;2023-02-01T04:18:37;24.63;;;23.33;;
58567;SDS011;44354;46.192;-1.076;2023-02-01T04:21:02;25.08;;;23.77;;
58567;SDS011;44354;46.192;-1.076;2023-02-01T04:23:29;25.30;;;24.00;;
58567;SDS011;44354;46.192;-1.076;2023-02-01T04:26:00;25.27;;;23.98;;
58567;SDS011;44354;46.192;-1.076;2023-02-01T04:28:27;25.30;;;24.00;;
58567;SDS011;44354;46.192;-1.076;2023-02-01T04:30:53;26.25;;;24.88;;
58567;SDS011;44354;46.192;-1.076;2023-02-01T04:33:18;25.23;;;23.92;;
58567;SDS011;44354;46.192;-1.076;2023-02-01T04:35:44;23.45;;;22.25;;
58567;SDS011;44354;46.192;-1.076;2023-02-01T04:38:10;26.40;;;25.00;;
58567;SDS011;44354;46.192;-1.076;2023-02-01T04:40:35;25.45;;;24.15;;
58567;SDS011;44354;46.192;-1.076;2023-02-01T04:43:02;25.42;;;24.13;;
58567;SDS011;44354;46.192;-1.076;2023-02-01T04:45:29;24.67;;;23.38;;
58567;SDS011;44354;46.192;-1.076;2023-02-01T04:47:57;23.40;;;22.20;;
58567;SDS011;44354;46.192;-1.076;2023-02-01T04:50:23;26.08;;;24.73;;
58567;SDS011;44354;46.192;-1.076;2023-02-01T04:52:49;23.05;;;21.85;;
58567;SDS011;44354;46.192;-1.076;2023-02-01T04:55:15;26.10;;;24.75;;
58567;SDS011;44354;46.192;-1.076;2023-02-01T04:57:43;25.83;;;24.52;;
58567;SDS011;44354;46.192;-1.076;2023-02-01T05:00:09;25.27;;;23.98;;
58567;SDS011;44354;46.192;-1.076;2023-02-01T05:02:36;29.00;;;27.50;;
58567;SDS011;44354;46.192;-1.076;2023-02-01T05:05:04;25.70;;;24.40;;
58567;SDS011;44354;46.192;-1.076;2023-02-01T05:07:33;26.38;;;24.98;;
58567;SDS011;44354;46.192;-1.076;2023-02-01T05:09:59;27.55;;;26.15;;
58567;SDS011;44354;46.192;-1.076;2023-02-01T05:12:25;26.70;;;25.30;;
58567;SDS011;44354;46.192;-1.076;2023-02-01T05:15:09;26.30;;;24.90;;
58567;SDS011;44354;46.192;-1.076;2023-02-01T05:17:35;24.58;;;23.30;;
58567;SDS011;44354;46.192;-1.076;2023-02-01T05:20:00;26.90;;;25.50;;
58567;SDS011;44354;46.192;-1.076;2023-02-01T05:22:26;26.63;;;25.23;;
58567;SDS011;44354;46.192;-1.076;2023-02-01T05:24:52;25.35;;;24.05;;
58567;SDS011;44354;46.192;-1.076;2023-02-01T05:27:18;25.75;;;24.45;;
58567;SDS011;44354;46.192;-1.076;2023-02-01T05:29:45;25.42;;;24.13;;
58567;SDS011;44354;46.192;-1.076;2023-02-01T05:32:18;25.40;;;24.10;;
58567;SDS011;44354;46.192;-1.076;2023-02-01T05:34:53;25.63;;;24.33;;
58567;SDS011;44354;46.192;-1.076;2023-02-01T05:37:19;24.23;;;22.98;;
58567;SDS011;44354;46.192;-1.076;2023-02-01T05:39:48;26.70;;;25.30;;
58567;SDS011;44354;46.192;-1.076;2023-02-01T05:42:31;25.05;;;23.75;;
58567;SDS011;44354;46.192;-1.076;2023-02-01T05:45:11;22.98;;;21.77;;
58567;SDS011;44354;46.192;-1.076;2023-02-01T05:47:39;23.77;;;22.58;;
58567;SDS011;44354;46.192;-1.076;2023-02-01T05:50:08;24.38;;;23.08;;
58567;SDS011;44354;46.192;-1.076;2023-02-01T05:52:52;22.40;;;21.25;;
58567;SDS011;44354;46.192;-1.076;2023-02-01T06:00:59;20.70;;;19.60;;
58567;SDS011;44354;46.192;-1.076;2023-02-01T06:03:25;19.83;;;18.83;;
58567;SDS011;44354;46.192;-1.076;2023-02-01T06:06:01;20.50;;;19.45;;
58567;SDS011;44354;46.192;-1.076;2023-02-01T06:11:36;22.20;;;21.07;;
58567;SDS011;44354;46.192;-1.076;2023-02-01T06:14:04;20.30;;;19.30;;
58567;SDS011;44354;46.192;-1.076;2023-02-01T06:16:32;23.33;;;22.13;;
58567;SDS011;44354;46.192;-1.076;2023-02-01T06:19:07;19.23;;;18.23;;
58567;SDS011;44354;46.192;-1.076;2023-02-01T06:22:10;19.35;;;18.35;;
58567;SDS011;44354;46.192;-1.076;2023-02-01T06:24:36;21.13;;;20.02;;
58567;SDS011;44354;46.192;-1.076;2023-02-01T06:27:02;20.13;;;19.13;;
58567;SDS011;44354;46.192;-1.076;2023-02-01T06:29:28;18.58;;;17.63;;
58567;SDS011;44354;46.192;-1.076;2023-02-01T06:31:54;17.80;;;16.90;;
58567;SDS011;44354;46.192;-1.076;2023-02-01T06:34:22;19.33;;;18.33;;
58567;SDS011;44354;46.192;-1.076;2023-02-01T06:36:48;18.83;;;17.85;;
58567;SDS011;44354;46.192;-1.076;2023-02-01T06:39:25;18.27;;;17.38;;
58567;SDS011;44354;46.192;-1.076;2023-02-01T06:41:52;18.08;;;17.17;;
58567;SDS011;44354;46.192;-1.076;2023-02-01T06:44:19;17.90;;;17.00;;
58567;SDS011;44354;46.192;-1.076;2023-02-01T06:46:45;18.27;;;17.38;;
58567;SDS011;44354;46.192;-1.076;2023-02-01T06:49:11;17.25;;;16.35;;
58567;SDS011;44354;46.192;-1.076;2023-02-01T06:51:37;16.00;;;15.20;;
58567;SDS011;44354;46.192;-1.076;2023-02-01T06:54:02;17.70;;;16.80;;
58567;SDS011;44354;46.192;-1.076;2023-02-01T07:13:31;13.38;;;12.68;;
58567;SDS011;44354;46.192;-1.076;2023-02-01T08:08:38;14.57;;;13.88;;
58567;SDS011;44354;46.192;-1.076;2023-02-01T08:11:05;16.27;;;15.48;;
58567;SDS011;44354;46.192;-1.076;2023-02-01T08:13:32;15.25;;;14.45;;
58567;SDS011;44354;46.192;-1.076;2023-02-01T08:16:00;15.98;;;15.18;;
58567;SDS011;44354;46.192;-1.076;2023-02-01T08:18:28;15.77;;;14.98;;
58567;SDS011;44354;46.192;-1.076;2023-02-01T08:20:54;14.73;;;14.02;;
58567;SDS011;44354;46.192;-1.076;2023-02-01T08:23:21;15.38;;;14.57;;
58567;SDS011;44354;46.192;-1.076;2023-02-01T08:25:47;14.18;;;13.48;;
58567;SDS011;44354;46.192;-1.076;2023-02-01T08:28:13;14.20;;;13.50;;
58567;SDS011;44354;46.192;-1.076;2023-02-01T08:30:39;14.65;;;13.95;;
58567;SDS011;44354;46.192;-1.076;2023-02-01T09:01:41;10.25;;;9.75;;
58567;SDS011;44354;46.192;-1.076;2023-02-01T09:04:10;10.57;;;9.98;;
58567;SDS011;44354;46.192;-1.076;2023-02-01T09:09:24;10.35;;;9.85;;
58567;SDS011;44354;46.192;-1.076;2023-02-01T09:44:12;10.70;;;10.20;;
58567;SDS011;44354;46.192;-1.076;2023-02-01T10:38:36;16.83;;;15.93;;
58567;SDS011;44354;46.192;-1.076;2023-02-01T10:43:53;20.73;;;19.00;;
58567;SDS011;44354;46.192;-1.076;2023-02-01T10:54:31;18.67;;;17.67;;
58567;SDS011;44354;46.192;-1.076;2023-02-01T10:57:25;18.52;;;17.52;;
58567;SDS011;44354;46.192;-1.076;2023-02-01T11:02:33;18.35;;;17.35;;
58567;SDS011;44354;46.192;-1.076;2023-02-01T11:15:59;19.85;;;18.70;;
58567;SDS011;44354;46.192;-1.076;2023-02-01T11:21:24;22.17;;;20.98;;
58567;SDS011;44354;46.192;-1.076;2023-02-01T11:23:53;20.92;;;19.83;;
58567;SDS011;44354;46.192;-1.076;2023-02-01T11:34:56;20.08;;;19.08;;
58567;SDS011;44354;46.192;-1.076;2023-02-01T11:37:37;19.05;;;18.05;;
58567;SDS011;44354;46.192;-1.076;2023-02-01T11:40:47;18.38;;;17.40;;
58567;SDS011;44354;46.192;-1.076;2023-02-01T11:43:18;18.60;;;17.63;;
58567;SDS011;44354;46.192;-1.076;2023-02-01T11:45:58;17.45;;;16.55;;
58567;SDS011;44354;46.192;-1.076;2023-02-01T11:48:26;17.23;;;16.33;;
58567;SDS011;44354;46.192;-1.076;2023-02-01T12:12:17;17.77;;;16.88;;
58567;SDS011;44354;46.192;-1.076;2023-02-01T12:26:23;15.75;;;14.95;;
58567;SDS011;44354;46.192;-1.076;2023-02-01T12:29:33;13.25;;;12.55;;
58567;SDS011;44354;46.192;-1.076;2023-02-01T12:38:07;12.15;;;11.55;;
58567;SDS011;44354;46.192;-1.076;2023-02-01T12:43:47;13.55;;;12.85;;
58567;SDS011;44354;46.192;-1.076;2023-02-01T12:52:21;12.30;;;11.70;;
58567;SDS011;44354;46.192;-1.076;2023-02-01T12:57:50;12.05;;;11.45;;
58567;SDS011;44354;46.192;-1.076;2023-02-01T13:00:41;14.30;;;13.60;;
58567;SDS011;44354;46.192;-1.076;2023-02-01T13:06:57;13.38;;;12.68;;
58567;SDS011;44354;46.192;-1.076;2023-02-01T13:09:30;12.70;;;12.10;;
58567;SDS011;44354;46.192;-1.076;2023-02-01T13:12:16;17.00;;;15.93;;
58567;SDS011;44354;46.192;-1.076;2023-02-01T13:14:52;12.35;;;11.75;;
58567;SDS011;44354;46.192;-1.076;2023-02-01T13:17:28;12.07;;;11.48;;
58567;SDS011;44354;46.192;-1.076;2023-02-01T13:22:51;9.87;;;9.17;;
58567;SDS011;44354;46.192;-1.076;2023-02-01T13:28:46;10.48;;;9.88;;
58567;SDS011;44354;46.192;-1.076;2023-02-01T13:43:05;9.80;;;8.80;;
58567;SDS011;44354;46.192;-1.076;2023-02-01T13:45:36;10.77;;;9.75;;
58567;SDS011;44354;46.192;-1.076;2023-02-01T13:48:14;11.75;;;11.05;;
58567;SDS011;44354;46.192;-1.076;2023-02-01T13:50:49;7.55;;;7.15;;
58567;SDS011;44354;46.192;-1.076;2023-02-01T13:53:18;9.15;;;8.60;;
58567;SDS011;44354;46.192;-1.076;2023-02-01T13:56:11;8.85;;;8.25;;
58567;SDS011;44354;46.192;-1.076;2023-02-01T13:58:40;8.57;;;8.18;;
58567;SDS011;44354;46.192;-1.076;2023-02-01T14:04:00;8.52;;;8.13;;
58567;SDS011;44354;46.192;-1.076;2023-02-01T14:07:04;6.90;;;6.60;;
58567;SDS011;44354;46.192;-1.076;2023-02-01T14:19:00;7.90;;;7.47;;
58567;SDS011;44354;46.192;-1.076;2023-02-01T14:21:54;8.15;;;7.75;;
58567;SDS011;44354;46.192;-1.076;2023-02-01T14:24:29;7.03;;;6.68;;
58567;SDS011;44354;46.192;-1.076;2023-02-01T14:26:58;7.60;;;7.03;;
58567;SDS011;44354;46.192;-1.076;2023-02-01T14:34:56;6.95;;;6.55;;
58567;SDS011;44354;46.192;-1.076;2023-02-01T14:37:29;7.45;;;6.95;;
58567;SDS011;44354;46.192;-1.076;2023-02-01T17:20:19;8.75;;;8.35;;
58567;SDS011;44354;46.192;-1.076;2023-02-01T17:23:05;8.43;;;8.02;;
58567;SDS011;44354;46.192;-1.076;2023-02-01T17:25:54;8.68;;;8.27;;
58567;SDS011;44354;46.192;-1.076;2023-02-01T17:31:55;9.27;;;8.82;;
58567;SDS011;44354;46.192;-1.076;2023-02-01T17:34:30;10.05;;;9.55;;
58567;SDS011;44354;46.192;-1.076;2023-02-01T17:36:56;8.88;;;8.48;;
58567;SDS011;44354;46.192;-1.076;2023-02-01T17:39:21;9.90;;;9.40;;
58567;SDS011;44354;46.192;-1.076;2023-02-01T17:42:08;9.27;;;8.85;;
58567;SDS011;44354;46.192;-1.076;2023-02-01T17:44:35;10.10;;;9.60;;
58567;SDS011;44354;46.192;-1.076;2023-02-01T17:47:01;9.48;;;8.98;;
58567;SDS011;44354;46.192;-1.076;2023-02-01T17:49:27;10.18;;;9.68;;
58567;SDS011;44354;46.192;-1.076;2023-02-01T17:51:53;9.07;;;8.68;;
58567;SDS011;44354;46.192;-1.076;2023-02-01T17:54:19;10.88;;;10.38;;
58567;SDS011;44354;46.192;-1.076;2023-02-01T17:56:45;10.35;;;9.85;;
58567;SDS011;44354;46.192;-1.076;2023-02-01T17:59:13;11.98;;;11.38;;
58567;SDS011;44354;46.192;-1.076;2023-02-01T18:01:39;10.27;;;9.77;;
58567;SDS011;44354;46.192;-1.076;2023-02-01T18:04:05;12.02;;;11.43;;
58567;SDS011;44354;46.192;-1.076;2023-02-01T18:06:34;10.50;;;10.00;;
58567;SDS011;44354;46.192;-1.076;2023-02-01T18:09:00;11.52;;;10.93;;
58567;SDS011;44354;46.192;-1.076;2023-02-01T18:11:25;11.48;;;10.88;;
58567;SDS011;44354;46.192;-1.076;2023-02-01T18:13:51;11.52;;;10.93;;
58567;SDS011;44354;46.192;-1.076;2023-02-01T18:16:22;11.57;;;10.98;;
58567;SDS011;44354;46.192;-1.076;2023-02-01T18:19:01;11.57;;;10.98;;
58567;SDS011;44354;46.192;-1.076;2023-02-01T18:21:35;12.50;;;11.90;;
58567;SDS011;44354;46.192;-1.076;2023-02-01T18:24:06;12.25;;;11.65;;
58567;SDS011;44354;46.192;-1.076;2023-02-01T18:26:47;12.98;;;12.27;;
58567;SDS011;44354;46.192;-1.076;2023-02-01T18:29:12;13.32;;;12.63;;
58567;SDS011;44354;46.192;-1.076;2023-02-01T18:31:40;11.85;;;11.25;;
58567;SDS011;44354;46.192;-1.076;2023-02-01T18:34:10;12.98;;;12.35;;
58567;SDS011;44354;46.192;-1.076;2023-02-01T18:36:41;13.23;;;12.52;;
58567;SDS011;44354;46.192;-1.076;2023-02-01T18:39:08;12.88;;;12.27;;
58567;SDS011;44354;46.192;-1.076;2023-02-01T18:41:35;11.90;;;11.30;;
58567;SDS011;44354;46.192;-1.076;2023-02-01T18:44:02;13.00;;;12.32;;
58567;SDS011;44354;46.192;-1.076;2023-02-01T18:46:34;15.25;;;14.32;;
58567;SDS011;44354;46.192;-1.076;2023-02-01T18:49:23;13.52;;;12.82;;
58567;SDS011;44354;46.192;-1.076;2023-02-01T18:52:21;12.40;;;11.80;;
58567;SDS011;44354;46.192;-1.076;2023-02-01T18:54:51;12.70;;;12.10;;
58567;SDS011;44354;46.192;-1.076;2023-02-01T18:57:20;13.43;;;12.73;;
58567;SDS011;44354;46.192;-1.076;2023-02-01T18:59:58;13.57;;;12.88;;
58567;SDS011;44354;46.192;-1.076;2023-02-01T19:02:34;13.32;;;12.63;;
58567;SDS011;44354;46.192;-1.076;2023-02-01T19:08:44;12.68;;;12.07;;
58567;SDS011;44354;46.192;-1.076;2023-02-01T19:15:02;12.93;;;12.27;;
58567;SDS011;44354;46.192;-1.076;2023-02-01T19:17:28;13.52;;;12.82;;
58567;SDS011;44354;46.192;-1.076;2023-02-01T19:20:02;13.35;;;12.65;;
58567;SDS011;44354;46.192;-1.076;2023-02-01T19:22:31;12.27;;;11.68;;
58567;SDS011;44354;46.192;-1.076;2023-02-01T19:25:30;13.07;;;12.43;;
58567;SDS011;44354;46.192;-1.076;2023-02-01T19:28:40;13.48;;;12.73;;
58567;SDS011;44354;46.192;-1.076;2023-02-01T19:31:16;12.45;;;11.85;;
58567;SDS011;44354;46.192;-1.076;2023-02-01T19:34:28;11.77;;;11.18;;
58567;SDS011;44354;46.192;-1.076;2023-02-01T19:40:12;12.50;;;11.90;;
58567;SDS011;44354;46.192;-1.076;2023-02-01T19:42:43;13.98;;;13.27;;
58567;SDS011;44354;46.192;-1.076;2023-02-01T19:45:12;14.65;;;13.95;;
58567;SDS011;44354;46.192;-1.076;2023-02-01T19:47:40;13.60;;;12.90;;
58567;SDS011;44354;46.192;-1.076;2023-02-01T19:50:26;14.20;;;13.50;;
58567;SDS011;44354;46.192;-1.076;2023-02-01T19:52:52;15.52;;;14.73;;
58567;SDS011;44354;46.192;-1.076;2023-02-01T19:55:19;16.42;;;15.63;;
58567;SDS011;44354;46.192;-1.076;2023-02-01T19:57:44;16.23;;;15.43;;
58567;SDS011;44354;46.192;-1.076;2023-02-01T20:00:23;15.93;;;15.13;;
58567;SDS011;44354;46.192;-1.076;2023-02-01T20:09:16;15.65;;;14.85;;
58567;SDS011;44354;46.192;-1.076;2023-02-01T20:11:46;17.67;;;16.77;;
58567;SDS011;44354;46.192;-1.076;2023-02-01T20:14:18;17.67;;;16.58;;
58567;SDS011;44354;46.192;-1.076;2023-02-01T20:16:51;16.13;;;15.32;;
58567;SDS011;44354;46.192;-1.076;2023-02-01T20:19:17;16.73;;;15.90;;
58567;SDS011;44354;46.192;-1.076;2023-02-01T20:21:46;17.20;;;16.30;;
58567;SDS011;44354;46.192;-1.076;2023-02-01T20:24:16;17.05;;;16.15;;
58567;SDS011;44354;46.192;-1.076;2023-02-01T20:26:43;16.00;;;15.20;;
58567;SDS011;44354;46.192;-1.076;2023-02-01T20:29:09;17.45;;;16.55;;
58567;SDS011;44354;46.192;-1.076;2023-02-01T20:31:38;17.00;;;16.10;;
58567;SDS011;44354;46.192;-1.076;2023-02-01T20:34:04;17.65;;;16.75;;
58567;SDS011;44354;46.192;-1.076;2023-02-01T20:36:47;17.35;;;16.45;;
58567;SDS011;44354;46.192;-1.076;2023-02-01T20:39:16;18.40;;;17.50;;
58567;SDS011;44354;46.192;-1.076;2023-02-01T20:59:55;18.55;;;17.60;;
58567;SDS011;44354;46.192;-1.076;2023-02-01T21:53:07;17.40;;;16.50;;
58567;SDS011;44354;46.192;-1.076;2023-02-01T21:55:33;17.90;;;17.00;;
58567;SDS011;44354;46.192;-1.076;2023-02-01T21:57:59;16.38;;;15.57;;
58567;SDS011;44354;46.192;-1.076;2023-02-01T22:00:25;17.02;;;16.13;;
58567;SDS011;44354;46.192;-1.076;2023-02-01T22:02:51;17.38;;;16.48;;
58567;SDS011;44354;46.192;-1.076;2023-02-01T22:05:19;17.17;;;16.27;;
58567;SDS011;44354;46.192;-1.076;2023-02-01T22:07:46;17.33;;;16.42;;
58567;SDS011;44354;46.192;-1.076;2023-02-01T22:10:15;18.95;;;17.95;;
58567;SDS011;44354;46.192;-1.076;2023-02-01T22:13:07;18.35;;;17.45;;
58567;SDS011;44354;46.192;-1.076;2023-02-01T22:15:33;18.50;;;17.60;;
58567;SDS011;44354;46.192;-1.076;2023-02-01T22:17:59;17.67;;;16.77;;
58567;SDS011;44354;46.192;-1.076;2023-02-01T22:20:25;16.90;;;16.00;;
58567;SDS011;44354;46.192;-1.076;2023-02-01T22:22:53;17.60;;;16.70;;
58567;SDS011;44354;46.192;-1.076;2023-02-01T22:25:43;17.40;;;16.50;;
58567;SDS011;44354;46.192;-1.076;2023-02-01T22:28:23;17.17;;;16.27;;
58567;SDS011;44354;46.192;-1.076;2023-02-01T22:30:59;19.30;;;18.30;;
58567;SDS011;44354;46.192;-1.076;2023-02-01T22:33:38;17.55;;;16.65;;
58567;SDS011;44354;46.192;-1.076;2023-02-01T22:36:21;18.25;;;17.35;;
58567;SDS011;44354;46.192;-1.076;2023-02-01T22:38:48;17.95;;;17.05;;
58567;SDS011;44354;46.192;-1.076;2023-02-01T22:41:15;18.92;;;17.95;;
58567;SDS011;44354;46.192;-1.076;2023-02-01T22:43:41;18.95;;;17.95;;
58567;SDS011;44354;46.192;-1.076;2023-02-01T22:46:10;19.42;;;18.42;;
58567;SDS011;44354;46.192;-1.076;2023-02-01T22:48:37;20.58;;;19.48;;
58567;SDS011;44354;46.192;-1.076;2023-02-01T22:51:04;18.88;;;17.88;;
58567;SDS011;44354;46.192;-1.076;2023-02-01T22:53:32;18.00;;;17.10;;
58567;SDS011;44354;46.192;-1.076;2023-02-01T22:55:58;18.15;;;17.25;;
58567;SDS011;44354;46.192;-1.076;2023-02-01T22:58:28;19.10;;;18.10;;
58567;SDS011;44354;46.192;-1.076;2023-02-01T23:00:54;20.02;;;19.02;;
58567;SDS011;44354;46.192;-1.076;2023-02-01T23:03:20;21.00;;;19.90;;
58567;SDS011;44354;46.192;-1.076;2023-02-01T23:05:46;21.15;;;20.05;;
58567;SDS011;44354;46.192;-1.076;2023-02-01T23:08:12;20.50;;;19.45;;
58567;SDS011;44354;46.192;-1.076;2023-02-01T23:10:37;19.35;;;18.35;;
58567;SDS011;44354;46.192;-1.076;2023-02-01T23:13:03;21.08;;;19.98;;
58567;SDS011;44354;46.192;-1.076;2023-02-01T23:15:29;19.90;;;18.90;;
58567;SDS011;44354;46.192;-1.076;2023-02-01T23:17:55;20.15;;;19.15;;
58567;SDS011;44354;46.192;-1.076;2023-02-01T23:20:32;20.42;;;19.38;;
58567;SDS011;44354;46.192;-1.076;2023-02-01T23:23:07;21.83;;;20.73;;
58567;SDS011;44354;46.192;-1.076;2023-02-01T23:26:20;21.13;;;20.02;;
58567;SDS011;44354;46.192;-1.076;2023-02-01T23:28:47;20.80;;;19.70;;
58567;SDS011;44354;46.192;-1.076;2023-02-01T23:31:14;20.45;;;19.40;;
58567;SDS011;44354;46.192;-1.076;2023-02-01T23:33:42;23.08;;;21.88;;
58567;SDS011;44354;46.192;-1.076;2023-02-01T23:36:10;20.10;;;19.10;;
58567;SDS011;44354;46.192;-1.076;2023-02-01T23:38:36;20.63;;;19.58;;
58567;SDS011;44354;46.192;-1.076;2023-02-01T23:41:03;19.90;;;18.90;;
58567;SDS011;44354;46.192;-1.076;2023-02-01T23:43:30;20.70;;;19.60;;
58567;SDS011;44354;46.192;-1.076;2023-02-01T23:46:14;22.40;;;21.25;;
58567;SDS011;44354;46.192;-1.076;2023-02-01T23:48:41;20.13;;;19.13;;
58567;SDS011;44354;46.192;-1.076;2023-02-01T23:51:07;21.83;;;20.73;;
58567;SDS011;44354;46.192;-1.076;2023-02-01T23:53:33;21.10;;;20.00;;
58567;SDS011;44354;46.192;-1.076;2023-02-01T23:55:59;20.98;;;19.88;;
58567;SDS011;44354;46.192;-1.076;2023-02-01T23:58:25;20.92;;;19.83;;
